createdAt,value
2019-05-30T00:01:11.599Z,4.23
2019-05-30T00:03:41.914Z,4.90
2019-05-30T00:06:12.145Z,4.20
2019-05-30T00:08:42.471Z,4.47
2019-05-30T00:11:13.001Z,3.50
2019-05-30T00:13:43.409Z,3.93
2019-05-30T00:16:13.678Z,3.60
2019-05-30T00:18:44.643Z,4.10
2019-05-30T00:21:14.915Z,4.57
2019-05-30T00:23:45.483Z,4.10
2019-05-30T00:26:15.759Z,4.57
2019-05-30T00:28:45.983Z,4.47
2019-05-30T00:31:16.210Z,4.37
2019-05-30T00:33:46.463Z,4.37
2019-05-30T00:36:16.751Z,4.67
2019-05-30T00:38:47.094Z,4.47
2019-05-30T00:41:17.480Z,4.47
2019-05-30T00:43:47.758Z,4.80
2019-05-30T00:46:18.293Z,4.07
2019-05-30T00:48:48.945Z,4.90
2019-05-30T00:51:19.191Z,5.30
2019-05-30T00:53:49.508Z,5.43
2019-05-30T00:56:19.832Z,4.80
2019-05-30T00:58:50.125Z,6.57
2019-05-30T01:01:20.316Z,4.97
2019-05-30T01:03:50.586Z,5.20
2019-05-30T01:06:20.859Z,5.50
2019-05-30T01:08:51.169Z,5.62
2019-05-30T01:11:21.476Z,5.70
2019-05-30T01:13:51.764Z,5.67
2019-05-30T01:16:22.022Z,5.77
2019-05-30T01:18:52.380Z,5.57
2019-05-30T01:21:22.970Z,5.53
2019-05-30T01:23:53.272Z,5.53
2019-05-30T01:26:23.621Z,5.47
2019-05-30T01:28:53.945Z,6.10
2019-05-30T01:31:24.278Z,4.97
2019-05-30T01:33:54.553Z,5.17
2019-05-30T01:36:25.199Z,5.60
2019-05-30T01:38:55.406Z,5.97
2019-05-30T01:41:25.621Z,5.13
2019-05-30T01:43:55.918Z,5.07
2019-05-30T01:46:26.509Z,4.47
2019-05-30T01:48:58.081Z,4.57
2019-05-30T01:51:28.367Z,4.97
2019-05-30T01:53:58.567Z,5.33
2019-05-30T01:56:28.836Z,5.87
2019-05-30T01:58:59.080Z,5.53
2019-05-30T02:01:29.361Z,4.87
2019-05-30T02:04:00.967Z,5.27
2019-05-30T02:06:32.577Z,5.93
2019-05-30T02:09:03.282Z,5.40
2019-05-30T02:11:35.261Z,6.70
2019-05-30T02:14:05.762Z,7.60
2019-05-30T02:19:36.596Z,7.13
2019-05-30T02:22:07.953Z,6.57
2019-05-30T02:24:38.466Z,7.80
2019-05-30T02:27:10.283Z,8.10
2019-05-30T02:29:41.992Z,7.33
2019-05-30T02:32:12.264Z,11.03
2019-05-30T02:34:42.494Z,7.57
2019-05-30T02:37:13.111Z,8.93
2019-05-30T02:39:44.425Z,8.10
2019-05-30T02:42:14.693Z,6.67
2019-05-30T02:44:44.964Z,6.50
2019-05-30T02:47:15.273Z,6.57
2019-05-30T02:49:45.567Z,6.23
2019-05-30T02:52:15.897Z,8.00
2019-05-30T02:54:46.170Z,6.73
2019-05-30T02:57:16.386Z,7.07
2019-05-30T02:59:46.615Z,7.67
2019-05-30T03:02:17.894Z,8.40
2019-05-30T03:04:48.350Z,7.85
2019-05-30T03:07:18.897Z,8.97
2019-05-30T03:09:49.264Z,9.53
2019-05-30T03:12:19.812Z,8.00
2019-05-30T03:14:50.160Z,7.67
2019-05-30T03:17:20.486Z,8.00
2019-05-30T03:19:50.775Z,7.27
2019-05-30T03:22:21.129Z,7.43
2019-05-30T03:24:51.513Z,7.57
2019-05-30T03:27:21.921Z,7.80
2019-05-30T03:29:52.148Z,7.30
2019-05-30T03:33:02.724Z,6.53
2019-05-30T03:34:54.339Z,6.73
2019-05-30T03:37:29.031Z,6.73
2019-05-30T03:39:56.937Z,7.27
2019-05-30T03:42:27.161Z,7.47
2019-05-30T03:44:57.667Z,6.50
2019-05-30T03:47:31.342Z,6.97
2019-05-30T03:50:05.169Z,7.47
2019-05-30T03:52:35.767Z,7.53
2019-05-30T03:55:09.257Z,8.33
2019-05-30T03:57:44.906Z,7.27
2019-05-30T04:00:28.766Z,9.23
2019-05-30T04:03:10.939Z,7.97
2019-05-30T04:05:44.362Z,9.70
2019-05-30T04:08:19.513Z,9.53
2019-05-30T04:10:52.467Z,10.17
2019-05-30T04:13:27.709Z,9.60
2019-05-30T04:15:58.574Z,9.77
2019-05-30T04:18:29.619Z,9.90
2019-05-30T04:20:59.916Z,9.63
2019-05-30T04:23:30.158Z,9.17
2019-05-30T04:26:01.313Z,9.07
2019-05-30T04:28:31.520Z,8.70
2019-05-30T04:31:01.759Z,8.37
2019-05-30T04:33:33.734Z,8.10
2019-05-30T04:36:04.556Z,7.93
2019-05-30T04:38:34.955Z,7.40
2019-05-30T04:41:05.840Z,7.20
2019-05-30T04:43:36.114Z,6.20
2019-05-30T04:46:06.354Z,6.47
2019-05-30T04:48:36.588Z,5.90
2019-05-30T04:51:06.870Z,7.00
2019-05-30T04:53:37.082Z,6.57
2019-05-30T04:56:07.298Z,5.90
2019-05-30T04:58:41.991Z,6.37
2019-05-30T05:01:10.863Z,6.70
2019-05-30T05:03:46.326Z,7.70
2019-05-30T05:06:15.646Z,6.03
2019-05-30T05:08:46.131Z,6.33
2019-05-30T05:11:20.457Z,6.33
2019-05-30T05:13:48.765Z,5.57
2019-05-30T05:16:31.064Z,6.10
2019-05-30T05:18:51.159Z,5.63
2019-05-30T05:21:21.658Z,5.77
2019-05-30T05:23:52.603Z,5.87
2019-05-30T05:26:23.642Z,5.67
2019-05-30T05:28:54.066Z,5.70
2019-05-30T05:31:24.494Z,5.70
2019-05-30T05:33:57.169Z,5.80
2019-05-30T05:36:27.003Z,6.00
2019-05-30T05:38:57.276Z,5.63
2019-05-30T05:41:28.599Z,6.93
2019-05-30T05:43:59.013Z,6.00
2019-05-30T05:46:29.669Z,7.07
2019-05-30T05:49:00.170Z,6.27
2019-05-30T05:51:31.828Z,6.13
2019-05-30T05:54:02.155Z,7.53
2019-05-30T05:56:32.425Z,7.27
2019-05-30T05:59:02.698Z,7.47
2019-05-30T06:01:33.399Z,6.93
2019-05-30T06:04:12.769Z,7.10
2019-05-30T06:06:36.873Z,7.20
2019-05-30T06:09:07.658Z,7.13
2019-05-30T06:11:37.938Z,6.60
2019-05-30T06:14:08.523Z,7.10
2019-05-30T06:16:38.773Z,7.70
2019-05-30T06:19:09.363Z,7.53
2019-05-30T06:21:53.030Z,7.23
2019-05-30T06:24:11.543Z,6.80
2019-05-30T06:26:42.294Z,7.07
2019-05-30T06:29:12.903Z,7.50
2019-05-30T06:31:44.234Z,7.53
2019-05-30T06:34:28.179Z,7.57
2019-05-30T06:36:46.411Z,8.63
2019-05-30T06:39:16.773Z,7.03
2019-05-30T06:41:48.076Z,8.37
2019-05-30T06:44:18.372Z,7.23
2019-05-30T06:46:48.662Z,6.70
2019-05-30T06:49:18.913Z,6.00
2019-05-30T06:51:49.213Z,5.97
2019-05-30T06:54:19.444Z,5.85
2019-05-30T06:56:49.809Z,6.57
2019-05-30T06:59:21.416Z,5.87
2019-05-30T07:01:52.416Z,5.90
2019-05-30T07:04:23.416Z,5.27
2019-05-30T07:06:55.278Z,5.27
2019-05-30T07:09:26.744Z,5.17
2019-05-30T07:11:57.193Z,5.10
2019-05-30T07:14:27.462Z,6.50
2019-05-30T07:16:57.970Z,5.57
2019-05-30T07:19:28.217Z,5.03
2019-05-30T07:21:58.492Z,5.17
2019-05-30T07:24:29.841Z,5.53
2019-05-30T07:27:01.293Z,4.57
2019-05-30T07:29:32.153Z,5.37
2019-05-30T07:32:02.703Z,7.27
2019-05-30T07:34:34.205Z,3.90
2019-05-30T07:37:04.643Z,5.10
2019-05-30T07:39:37.331Z,4.27
2019-05-30T07:42:07.218Z,5.93
2019-05-30T07:44:37.542Z,5.53
2019-05-30T07:47:07.726Z,8.30
2019-05-30T07:49:38.673Z,4.60
2019-05-30T07:52:09.016Z,5.23
2019-05-30T07:54:39.351Z,4.93
2019-05-30T07:57:09.614Z,5.83
2019-05-30T07:59:39.877Z,4.53
2019-05-30T08:02:10.505Z,4.03
2019-05-30T08:04:40.844Z,4.15
2019-05-30T08:07:11.127Z,3.83
2019-05-30T08:09:41.688Z,4.53
2019-05-30T08:12:11.880Z,3.93
2019-05-30T08:14:42.125Z,3.50
2019-05-30T08:17:12.477Z,3.98
2019-05-30T08:19:42.833Z,3.95
2019-05-30T08:22:13.049Z,4.40
2019-05-30T08:24:43.264Z,4.65
2019-05-30T08:27:13.492Z,5.53
2019-05-30T08:29:43.720Z,4.28
2019-05-30T08:32:14.297Z,4.05
2019-05-30T08:34:44.517Z,4.53
2019-05-30T08:37:14.814Z,3.27
2019-05-30T08:39:45.377Z,2.50
2019-05-30T08:42:15.565Z,3.27
2019-05-30T08:44:46.142Z,4.08
2019-05-30T08:47:16.420Z,3.67
2019-05-30T08:49:46.703Z,2.98
2019-05-30T08:52:17.295Z,5.05
2019-05-30T08:54:47.512Z,3.25
2019-05-30T08:57:17.915Z,3.42
2019-05-30T08:59:48.166Z,3.98
2019-05-30T09:02:18.481Z,2.72
2019-05-30T09:04:50.317Z,4.93
2019-05-30T09:07:20.562Z,3.92
2019-05-30T09:09:50.825Z,2.58
2019-05-30T09:12:21.107Z,3.30
2019-05-30T09:14:51.555Z,3.02
2019-05-30T09:17:21.921Z,2.87
2019-05-30T09:19:52.350Z,2.67
2019-05-30T09:22:22.618Z,2.60
2019-05-30T09:24:52.911Z,2.70
2019-05-30T09:27:23.381Z,2.65
2019-05-30T09:29:53.662Z,2.50
2019-05-30T09:32:24.853Z,3.02
2019-05-30T09:34:55.375Z,2.20
2019-05-30T09:37:26.645Z,2.20
2019-05-30T09:39:57.634Z,2.60
2019-05-30T09:42:27.958Z,2.58
2019-05-30T09:44:58.530Z,3.67
2019-05-30T09:47:29.610Z,2.08
2019-05-30T09:50:03.138Z,1.98
2019-05-30T09:52:33.427Z,2.83
2019-05-30T09:55:03.787Z,2.08
2019-05-30T09:57:34.036Z,1.77
2019-05-30T10:00:05.108Z,2.12
2019-05-30T10:02:35.401Z,1.10
2019-05-30T10:05:07.423Z,1.62
2019-05-30T10:07:38.099Z,1.60
2019-05-30T10:10:09.165Z,1.37
2019-05-30T10:12:39.784Z,0.97
2019-05-30T10:15:11.356Z,2.15
2019-05-30T10:17:41.782Z,1.35
2019-05-30T10:20:12.660Z,1.35
2019-05-30T10:22:42.934Z,1.30
2019-05-30T10:25:13.707Z,1.17
2019-05-30T10:27:46.273Z,1.67
2019-05-30T10:30:17.079Z,0.90
2019-05-30T10:32:49.008Z,0.90
2019-05-30T10:35:20.937Z,1.25
2019-05-30T10:37:51.381Z,1.17
2019-05-30T10:40:22.028Z,1.50
2019-05-30T10:42:53.314Z,1.10
2019-05-30T10:45:24.947Z,1.07
2019-05-30T10:47:55.666Z,1.10
2019-05-30T10:50:26.433Z,0.75
2019-05-30T10:52:57.979Z,0.98
2019-05-30T10:55:28.490Z,1.15
2019-05-30T10:57:59.728Z,1.22
2019-05-30T11:00:48.912Z,1.02
2019-05-30T11:03:21.250Z,1.87
2019-05-30T11:06:23.305Z,1.15
2019-05-30T11:08:56.698Z,1.07
2019-05-30T11:11:27.911Z,1.50
2019-05-30T11:13:58.200Z,0.80
2019-05-30T11:16:28.476Z,0.82
2019-05-30T11:18:58.752Z,0.72
2019-05-30T11:21:29.274Z,1.62
2019-05-30T11:23:59.828Z,1.27
2019-05-30T11:26:30.100Z,1.37
2019-05-30T11:29:00.388Z,0.75
2019-05-30T11:31:31.011Z,1.05
2019-05-30T11:34:01.478Z,0.80
2019-05-30T11:36:31.741Z,0.80
2019-05-30T11:39:02.102Z,1.10
2019-05-30T11:41:33.948Z,1.17
2019-05-30T11:44:04.460Z,1.85
2019-05-30T11:46:34.669Z,0.90
2019-05-30T11:49:05.412Z,1.22
2019-05-30T11:51:35.639Z,1.32
2019-05-30T11:54:06.399Z,2.93
2019-05-30T11:56:36.617Z,0.88
2019-05-30T11:59:06.822Z,1.00
2019-05-30T12:01:37.035Z,0.78
2019-05-30T12:04:07.272Z,1.10
2019-05-30T12:06:37.480Z,0.90
2019-05-30T12:09:08.864Z,1.00
2019-05-30T12:11:39.055Z,0.85
2019-05-30T12:14:09.362Z,1.00
2019-05-30T12:16:39.595Z,1.52
2019-05-30T12:19:10.199Z,0.90
2019-05-30T12:21:40.463Z,1.32
2019-05-30T12:24:10.775Z,1.20
2019-05-30T12:26:41.038Z,1.10
2019-05-30T12:29:11.666Z,1.00
2019-05-30T12:31:41.873Z,1.20
2019-05-30T12:34:12.120Z,0.80
2019-05-30T12:36:42.414Z,1.22
2019-05-30T12:39:13.099Z,0.90
2019-05-30T12:41:43.703Z,1.47
2019-05-30T12:44:14.018Z,1.10
2019-05-30T12:46:44.555Z,0.93
2019-05-30T12:49:14.784Z,1.17
2019-05-30T12:51:45.140Z,1.10
2019-05-30T12:54:16.001Z,1.10
2019-05-30T12:56:46.200Z,1.13
2019-05-30T12:59:16.539Z,0.80
2019-05-30T13:01:46.718Z,1.17
2019-05-30T13:04:16.984Z,1.07
2019-05-30T13:06:48.142Z,1.20
2019-05-30T13:09:18.706Z,1.00
2019-05-30T13:11:48.974Z,0.93
2019-05-30T13:14:19.572Z,2.17
2019-05-30T13:16:49.805Z,1.45
2019-05-30T13:19:20.042Z,0.82
2019-05-30T13:21:53.683Z,1.25
2019-05-30T13:24:22.357Z,1.20
2019-05-30T13:26:52.603Z,1.65
2019-05-30T13:29:22.831Z,1.82
2019-05-30T13:31:53.372Z,1.20
2019-05-30T13:34:23.594Z,2.55
2019-05-30T13:36:53.924Z,1.00
2019-05-30T13:39:24.556Z,1.35
2019-05-30T13:41:54.788Z,2.80
2019-05-30T13:44:25.038Z,1.45
2019-05-30T13:46:55.370Z,2.80
2019-05-30T13:49:25.707Z,1.52
2019-05-30T13:51:56.106Z,1.22
2019-05-30T13:54:26.318Z,2.10
2019-05-30T13:56:56.616Z,1.27
2019-05-30T13:59:26.890Z,1.70
2019-05-30T14:01:57.477Z,0.90
2019-05-30T14:04:27.730Z,1.07
2019-05-30T14:06:58.011Z,1.40
2019-05-30T14:09:28.298Z,1.27
2019-05-30T14:11:58.684Z,2.00
2019-05-30T14:14:28.947Z,1.02
2019-05-30T14:16:59.212Z,2.23
2019-05-30T14:19:29.484Z,1.20
2019-05-30T14:22:01.163Z,1.50
2019-05-30T14:24:31.896Z,1.00
2019-05-30T14:27:03.387Z,1.27
2019-05-30T14:29:34.779Z,0.90
2019-05-30T14:32:05.751Z,1.22
2019-05-30T14:34:36.039Z,1.10
2019-05-30T14:37:06.477Z,1.00
2019-05-30T14:39:37.885Z,1.37
2019-05-30T14:42:09.169Z,0.90
2019-05-30T14:44:40.512Z,1.07
2019-05-30T14:47:10.799Z,1.10
2019-05-30T14:49:40.999Z,1.07
2019-05-30T14:52:11.783Z,1.17
2019-05-30T14:54:43.229Z,1.10
2019-05-30T14:57:13.524Z,1.35
2019-05-30T14:59:44.157Z,1.15
2019-05-30T15:02:14.392Z,1.03
2019-05-30T15:04:45.529Z,1.24
2019-05-30T15:07:15.762Z,1.10
2019-05-30T15:09:49.364Z,1.30
2019-05-30T15:12:19.669Z,1.00
2019-05-30T15:14:49.960Z,1.10
2019-05-30T15:17:20.271Z,1.25
2019-05-30T15:19:50.549Z,1.10
2019-05-30T15:22:20.869Z,1.95
2019-05-30T15:24:51.239Z,1.20
2019-05-30T15:27:21.516Z,2.02
2019-05-30T15:29:52.254Z,1.17
2019-05-30T15:32:22.484Z,2.67
2019-05-30T15:34:52.776Z,2.95
2019-05-30T15:37:23.024Z,1.40
2019-05-30T15:39:53.661Z,1.82
2019-05-30T15:42:24.254Z,1.30
2019-05-30T15:44:54.824Z,1.25
2019-05-30T15:47:25.028Z,3.85
2019-05-30T15:49:55.677Z,1.60
2019-05-30T15:52:26.306Z,1.50
2019-05-30T15:54:56.578Z,1.95
2019-05-30T15:57:26.863Z,2.10
2019-05-30T15:59:57.114Z,1.95
2019-05-30T16:02:27.588Z,1.47
2019-05-30T16:04:58.245Z,1.30
2019-05-30T16:07:29.480Z,1.05
2019-05-30T16:10:00.257Z,1.30
2019-05-30T16:12:30.870Z,1.23
2019-05-30T16:15:01.042Z,1.22
2019-05-30T16:17:32.702Z,1.03
2019-05-30T16:20:02.994Z,1.30
2019-05-30T16:22:35.094Z,1.30
2019-05-30T16:25:05.523Z,1.30
2019-05-30T16:27:35.867Z,1.70
2019-05-30T16:30:07.928Z,1.25
2019-05-30T16:32:38.464Z,1.77
2019-05-30T16:35:09.975Z,1.45
2019-05-30T16:37:41.207Z,1.45
2019-05-30T16:40:12.580Z,1.98
2019-05-30T16:42:42.876Z,1.77
2019-05-30T16:45:18.267Z,1.65
2019-05-30T16:47:49.148Z,1.77
2019-05-30T16:50:20.672Z,1.30
2019-05-30T16:52:50.891Z,1.77
2019-05-30T16:55:21.409Z,1.65
2019-05-30T16:57:51.769Z,1.20
2019-05-30T17:00:22.592Z,1.57
2019-05-30T17:02:53.322Z,1.45
2019-05-30T17:05:23.499Z,1.75
2019-05-30T17:07:54.080Z,1.72
2019-05-30T17:10:32.264Z,1.84
2019-05-30T17:12:57.830Z,1.50
2019-05-30T17:15:28.157Z,3.43
2019-05-30T17:17:59.230Z,1.40
2019-05-30T17:20:29.430Z,1.47
2019-05-30T17:23:00.008Z,1.82
2019-05-30T17:25:30.769Z,1.87
2019-05-30T17:28:01.061Z,1.17
2019-05-30T17:30:31.333Z,1.32
2019-05-30T17:33:01.683Z,1.50
2019-05-30T17:35:31.913Z,1.40
2019-05-30T17:38:02.163Z,1.20
2019-05-30T17:40:44.312Z,1.65
2019-05-30T17:43:04.688Z,1.30
2019-05-30T17:45:34.957Z,2.02
2019-05-30T17:48:15.983Z,1.42
2019-05-30T17:50:38.195Z,1.60
2019-05-30T17:53:08.739Z,1.77
2019-05-30T17:55:39.131Z,1.27
2019-05-30T17:58:10.323Z,1.30
2019-05-30T18:00:41.193Z,1.10
2019-05-30T18:03:11.660Z,1.30
2019-05-30T18:05:42.087Z,3.05
2019-05-30T18:08:12.440Z,1.47
2019-05-30T18:10:53.311Z,1.70
2019-05-30T18:13:15.388Z,1.27
2019-05-30T18:15:45.613Z,1.80
2019-05-30T18:18:15.792Z,1.57
2019-05-30T18:20:48.680Z,1.40
2019-05-30T18:23:18.871Z,6.58
2019-05-30T18:25:49.277Z,1.60
2019-05-30T18:28:19.549Z,2.05
2019-05-30T18:30:49.815Z,3.40
2019-05-30T18:33:20.071Z,1.92
2019-05-30T18:35:50.358Z,5.30
2019-05-30T18:38:20.657Z,1.57
2019-05-30T18:40:50.979Z,2.42
2019-05-30T18:43:21.235Z,1.90
2019-05-30T18:45:51.710Z,1.75
2019-05-30T18:48:23.301Z,1.70
2019-05-30T18:50:53.658Z,3.10
2019-05-30T18:53:24.210Z,2.02
2019-05-30T18:55:54.694Z,1.57
2019-05-30T18:58:24.911Z,1.98
2019-05-30T19:00:55.380Z,1.50
2019-05-30T19:03:26.474Z,2.30
2019-05-30T19:05:56.992Z,1.40
2019-05-30T19:08:27.886Z,1.22
2019-05-30T19:10:58.522Z,1.90
2019-05-30T19:13:29.230Z,1.30
2019-05-30T19:15:59.807Z,5.40
2019-05-30T19:18:31.610Z,1.36
2019-05-30T19:21:01.975Z,1.83
2019-05-30T19:23:32.239Z,4.33
2019-05-30T19:26:02.518Z,3.07
2019-05-30T19:28:32.782Z,3.10
2019-05-30T19:31:03.091Z,5.15
2019-05-30T19:33:34.954Z,1.82
2019-05-30T19:36:05.533Z,1.70
2019-05-30T19:38:35.828Z,2.50
2019-05-30T19:41:06.130Z,1.70
2019-05-30T19:43:36.474Z,2.00
2019-05-30T19:46:07.280Z,1.60
2019-05-30T19:48:38.534Z,1.87
2019-05-30T19:51:08.843Z,3.25
2019-05-30T19:53:39.393Z,1.90
2019-05-30T19:56:09.888Z,1.75
2019-05-30T19:58:40.159Z,3.67
2019-05-30T20:01:10.435Z,1.85
2019-05-30T20:03:46.269Z,1.65
2019-05-30T20:06:12.629Z,1.62
2019-05-30T20:08:54.596Z,1.30
2019-05-30T20:11:15.267Z,1.80
2019-05-30T20:13:45.570Z,1.90
2019-05-30T20:16:15.870Z,1.65
2019-05-30T20:18:46.162Z,1.77
2019-05-30T20:21:16.410Z,1.92
2019-05-30T20:23:54.242Z,1.65
2019-05-30T20:26:18.742Z,2.60
2019-05-30T20:28:49.248Z,2.20
2019-05-30T20:31:19.467Z,1.62
2019-05-30T20:33:50.330Z,2.00
2019-05-30T20:36:21.958Z,1.72
2019-05-30T20:38:52.284Z,2.90
2019-05-30T20:41:22.537Z,2.10
2019-05-30T20:43:52.793Z,2.12
2019-05-30T20:46:24.186Z,1.72
2019-05-30T20:48:54.450Z,1.98
2019-05-30T20:51:24.727Z,2.08
2019-05-30T20:53:55.094Z,2.72
2019-05-30T20:56:25.372Z,1.60
2019-05-30T20:58:55.606Z,1.30
2019-05-30T21:01:25.965Z,1.60
2019-05-30T21:03:56.254Z,1.60
2019-05-30T21:06:27.580Z,1.45
2019-05-30T21:08:59.340Z,1.67
2019-05-30T21:11:30.810Z,2.58
2019-05-30T21:14:02.504Z,3.50
2019-05-30T21:16:35.555Z,1.90
2019-05-30T21:19:05.906Z,1.75
2019-05-30T21:21:36.199Z,1.72
2019-05-30T21:24:06.418Z,2.33
2019-05-30T21:26:36.805Z,1.92
2019-05-30T21:29:07.110Z,2.00
2019-05-30T21:31:37.435Z,1.50
2019-05-30T21:34:07.764Z,1.80
2019-05-30T21:36:39.826Z,1.70
2019-05-30T21:39:10.357Z,1.92
2019-05-30T21:41:42.181Z,1.80
2019-05-30T21:44:12.575Z,3.85
2019-05-30T21:46:42.836Z,1.87
2019-05-30T21:49:13.102Z,4.17
2019-05-30T21:51:43.373Z,2.00
2019-05-30T21:54:13.591Z,1.80
2019-05-30T21:56:44.074Z,1.80
2019-05-30T21:59:14.382Z,2.25
2019-05-30T22:01:44.875Z,1.90
2019-05-30T22:04:15.305Z,2.47
2019-05-30T22:06:45.563Z,2.05
2019-05-30T22:09:15.888Z,2.35
2019-05-30T22:11:46.120Z,2.33
2019-05-30T22:14:16.410Z,2.42
2019-05-30T22:16:47.930Z,2.58
2019-05-30T22:19:18.657Z,2.42
2019-05-30T22:21:50.282Z,2.08
2019-05-30T22:24:21.784Z,4.10
2019-05-30T22:26:52.668Z,3.17
2019-05-30T22:29:23.079Z,2.93
2019-05-30T22:31:53.614Z,2.83
2019-05-30T22:34:23.901Z,3.27
2019-05-30T22:36:54.226Z,2.83
2019-05-30T22:39:24.459Z,2.58
2019-05-30T22:41:54.734Z,3.42
2019-05-30T22:44:25.626Z,5.50
2019-05-30T22:46:56.934Z,2.70
2019-05-30T22:49:27.527Z,2.72
2019-05-30T22:51:57.772Z,2.70
2019-05-30T22:54:27.969Z,2.83
2019-05-30T22:57:01.330Z,3.52
2019-05-30T22:59:30.548Z,2.62
2019-05-30T23:02:00.912Z,2.30
2019-05-30T23:04:32.125Z,2.67
2019-05-30T23:07:02.856Z,3.60
2019-05-30T23:09:33.586Z,3.15
2019-05-30T23:12:04.259Z,3.05
2019-05-30T23:14:34.546Z,2.87
2019-05-30T23:17:04.899Z,2.77
2019-05-30T23:19:35.831Z,2.95
2019-05-30T23:22:06.188Z,3.22
2019-05-30T23:24:36.474Z,3.05
2019-05-30T23:27:08.310Z,5.85
2019-05-30T23:29:39.151Z,2.90
2019-05-30T23:32:09.417Z,2.90
2019-05-30T23:34:41.506Z,3.65
2019-05-30T23:37:12.708Z,4.28
2019-05-30T23:39:43.417Z,3.40
2019-05-30T23:42:13.622Z,3.33
2019-05-30T23:44:43.943Z,3.12
2019-05-30T23:47:14.271Z,2.72
2019-05-30T23:49:44.523Z,3.15
2019-05-30T23:52:15.216Z,2.70
2019-05-30T23:54:45.477Z,4.62
2019-05-30T23:57:15.678Z,2.70
2019-05-30T23:59:45.930Z,3.73
